Airfield :







YOU CAN JOIN US ON...

 
LOGIN :

Register | Disclaimer

   EN    FR    IT 

 









Legend :    VFR   Marginal VFR   IFR   Intensive IFR   Very Intensive IFR
Visi :
Ceiling :
>= 8 km
>= 3000ft
5 to 8 km
1000 to 3000 ft
1500m to 5 km
500 to 1000 ft
800 to 1500m
200 to 500 ft
< 800m
< 200 ft
Symbols :   Thunderstorms  Fog  Heavy snow  Heavy precipitations  Wind > 20 kt







- Airport Elevation : 38 ft
- IATA code : YMH


CYMH - Mary's Harbour

CURRENT METAR :
  • 221400Z AUTO 31009KT 9SM BKN046 09/00 A2989 RMK SLP125

EXPIRED METARs :
  • 221300Z AUTO 32008KT 9SM FEW034 08/01 A2988 RMK SLP121
  • 221200Z AUTO 29009G19KT 9SM CLR 08/02 A2987 RMK SLP118

TAF TAF CYMH
Valid from the 22 at 14:00 until the 23 at 02:00 UTC


221343Z 2214/2302 29010G20KT P6SM FEW030
TEMPO 2214/2215 BKN020
FM221500 30012G22KT P6SM BKN030
TEMPO 2215/2302 SCT030
BECMG 2221/2222 29010KT RMK FCST BASED ON AUTO OBS. NXT FCST BY 222000Z
CZQX FIR / North America



MET'MAP, your aeronautical weather chart ! - Copyright ORBIFLY December 2007 - Disclaimer

ORBIFLY MET'MAP TEAM :

Programming & Development : Alexandra Zaïnal
Concept & Development : Baudouin d'Aumeries
Co-Development & Prog : Marc-Olivier Méhu
Technical & hardware support : Manuel Goepfert

Contact : metmap@orbifly.com




SOURCES & CREDITS :

   NOAA